sensor_id;sensor_type;location;lat;lon;timestamp;P1;durP1;ratioP1;P2;durP2;ratioP2
77026;SDS011;65956;52.986;17.490;2024-02-14T00:01:12;20.50;;;10.30;;
77026;SDS011;65956;52.986;17.490;2024-02-14T00:03:39;18.80;;;9.80;;
77026;SDS011;65956;52.986;17.490;2024-02-14T00:06:05;19.60;;;9.70;;
77026;SDS011;65956;52.986;17.490;2024-02-14T00:08:32;18.80;;;10.60;;
77026;SDS011;65956;52.986;17.490;2024-02-14T00:10:58;20.50;;;10.10;;
77026;SDS011;65956;52.986;17.490;2024-02-14T00:13:24;22.10;;;10.40;;
77026;SDS011;65956;52.986;17.490;2024-02-14T00:15:50;16.80;;;8.90;;
77026;SDS011;65956;52.986;17.490;2024-02-14T00:18:17;18.60;;;9.40;;
77026;SDS011;65956;52.986;17.490;2024-02-14T00:20:43;24.20;;;14.40;;
77026;SDS011;65956;52.986;17.490;2024-02-14T00:23:09;22.00;;;10.70;;
77026;SDS011;65956;52.986;17.490;2024-02-14T00:25:37;21.90;;;10.60;;
77026;SDS011;65956;52.986;17.490;2024-02-14T00:28:03;17.70;;;9.70;;
77026;SDS011;65956;52.986;17.490;2024-02-14T00:30:31;18.90;;;10.80;;
77026;SDS011;65956;52.986;17.490;2024-02-14T00:32:57;23.30;;;11.30;;
77026;SDS011;65956;52.986;17.490;2024-02-14T00:35:24;19.70;;;10.90;;
77026;SDS011;65956;52.986;17.490;2024-02-14T00:37:50;20.80;;;10.70;;
77026;SDS011;65956;52.986;17.490;2024-02-14T00:40:16;20.60;;;10.60;;
77026;SDS011;65956;52.986;17.490;2024-02-14T00:42:43;21.40;;;11.10;;
77026;SDS011;65956;52.986;17.490;2024-02-14T00:45:09;21.70;;;11.90;;
77026;SDS011;65956;52.986;17.490;2024-02-14T00:47:35;22.30;;;12.10;;
77026;SDS011;65956;52.986;17.490;2024-02-14T00:50:02;25.70;;;13.00;;
77026;SDS011;65956;52.986;17.490;2024-02-14T00:52:29;27.00;;;14.30;;
77026;SDS011;65956;52.986;17.490;2024-02-14T00:54:55;28.10;;;15.00;;
77026;SDS011;65956;52.986;17.490;2024-02-14T00:57:21;24.90;;;13.40;;
77026;SDS011;65956;52.986;17.490;2024-02-14T00:59:52;22.30;;;13.50;;
77026;SDS011;65956;52.986;17.490;2024-02-14T01:02:18;21.30;;;12.50;;
77026;SDS011;65956;52.986;17.490;2024-02-14T01:04:45;21.50;;;13.90;;
77026;SDS011;65956;52.986;17.490;2024-02-14T01:07:11;20.60;;;13.20;;
77026;SDS011;65956;52.986;17.490;2024-02-14T01:09:37;20.90;;;13.10;;
77026;SDS011;65956;52.986;17.490;2024-02-14T01:12:03;18.90;;;10.90;;
77026;SDS011;65956;52.986;17.490;2024-02-14T01:14:31;23.80;;;12.60;;
77026;SDS011;65956;52.986;17.490;2024-02-14T01:16:57;23.40;;;13.30;;
77026;SDS011;65956;52.986;17.490;2024-02-14T01:19:23;22.50;;;12.40;;
77026;SDS011;65956;52.986;17.490;2024-02-14T01:21:51;21.80;;;11.00;;
77026;SDS011;65956;52.986;17.490;2024-02-14T01:24:17;22.60;;;13.10;;
77026;SDS011;65956;52.986;17.490;2024-02-14T01:26:43;28.50;;;14.30;;
77026;SDS011;65956;52.986;17.490;2024-02-14T01:29:09;25.20;;;12.70;;
77026;SDS011;65956;52.986;17.490;2024-02-14T01:31:36;23.60;;;12.50;;
77026;SDS011;65956;52.986;17.490;2024-02-14T01:34:03;21.40;;;11.50;;
77026;SDS011;65956;52.986;17.490;2024-02-14T01:36:29;23.80;;;11.10;;
77026;SDS011;65956;52.986;17.490;2024-02-14T01:38:55;24.10;;;11.40;;
77026;SDS011;65956;52.986;17.490;2024-02-14T01:41:21;20.70;;;11.40;;
77026;SDS011;65956;52.986;17.490;2024-02-14T01:43:48;22.20;;;10.90;;
77026;SDS011;65956;52.986;17.490;2024-02-14T01:46:15;19.60;;;11.60;;
77026;SDS011;65956;52.986;17.490;2024-02-14T01:48:43;18.90;;;10.50;;
77026;SDS011;65956;52.986;17.490;2024-02-14T01:51:10;21.90;;;10.40;;
77026;SDS011;65956;52.986;17.490;2024-02-14T01:53:38;22.50;;;11.20;;
77026;SDS011;65956;52.986;17.490;2024-02-14T01:56:06;19.70;;;10.40;;
77026;SDS011;65956;52.986;17.490;2024-02-14T01:58:33;22.00;;;10.90;;
77026;SDS011;65956;52.986;17.490;2024-02-14T02:01:00;24.50;;;12.20;;
77026;SDS011;65956;52.986;17.490;2024-02-14T02:03:26;22.90;;;12.00;;
77026;SDS011;65956;52.986;17.490;2024-02-14T02:05:53;22.40;;;12.00;;
77026;SDS011;65956;52.986;17.490;2024-02-14T02:08:20;23.60;;;12.70;;
77026;SDS011;65956;52.986;17.490;2024-02-14T02:10:47;23.00;;;12.70;;
77026;SDS011;65956;52.986;17.490;2024-02-14T02:13:13;26.90;;;13.50;;
77026;SDS011;65956;52.986;17.490;2024-02-14T02:15:41;25.60;;;12.80;;
77026;SDS011;65956;52.986;17.490;2024-02-14T02:18:10;23.10;;;12.60;;
77026;SDS011;65956;52.986;17.490;2024-02-14T02:20:37;25.90;;;12.60;;
77026;SDS011;65956;52.986;17.490;2024-02-14T02:23:04;23.40;;;12.40;;
77026;SDS011;65956;52.986;17.490;2024-02-14T02:25:31;23.50;;;12.60;;
77026;SDS011;65956;52.986;17.490;2024-02-14T02:27:57;25.00;;;14.10;;
77026;SDS011;65956;52.986;17.490;2024-02-14T02:30:23;27.40;;;14.50;;
77026;SDS011;65956;52.986;17.490;2024-02-14T02:32:50;27.40;;;13.20;;
77026;SDS011;65956;52.986;17.490;2024-02-14T02:35:17;25.30;;;14.10;;
77026;SDS011;65956;52.986;17.490;2024-02-14T02:37:47;28.10;;;13.80;;
77026;SDS011;65956;52.986;17.490;2024-02-14T02:40:16;27.30;;;12.70;;
77026;SDS011;65956;52.986;17.490;2024-02-14T02:42:43;28.00;;;13.30;;
77026;SDS011;65956;52.986;17.490;2024-02-14T02:45:11;26.60;;;14.70;;
77026;SDS011;65956;52.986;17.490;2024-02-14T02:47:37;24.50;;;13.20;;
77026;SDS011;65956;52.986;17.490;2024-02-14T02:50:03;25.50;;;14.20;;
77026;SDS011;65956;52.986;17.490;2024-02-14T02:52:30;25.50;;;12.30;;
77026;SDS011;65956;52.986;17.490;2024-02-14T02:54:59;22.20;;;13.10;;
77026;SDS011;65956;52.986;17.490;2024-02-14T02:57:26;31.40;;;14.80;;
77026;SDS011;65956;52.986;17.490;2024-02-14T02:59:53;27.80;;;13.30;;
77026;SDS011;65956;52.986;17.490;2024-02-14T03:02:20;26.10;;;14.20;;
77026;SDS011;65956;52.986;17.490;2024-02-14T03:04:46;26.10;;;12.90;;
77026;SDS011;65956;52.986;17.490;2024-02-14T03:07:12;28.20;;;14.00;;
77026;SDS011;65956;52.986;17.490;2024-02-14T03:09:39;27.30;;;13.40;;
77026;SDS011;65956;52.986;17.490;2024-02-14T03:12:05;30.30;;;13.10;;
77026;SDS011;65956;52.986;17.490;2024-02-14T03:14:31;24.80;;;14.00;;
77026;SDS011;65956;52.986;17.490;2024-02-14T03:17:07;24.50;;;12.20;;
77026;SDS011;65956;52.986;17.490;2024-02-14T03:22:04;24.90;;;11.90;;
77026;SDS011;65956;52.986;17.490;2024-02-14T03:24:35;27.80;;;14.00;;
77026;SDS011;65956;52.986;17.490;2024-02-14T03:27:04;25.60;;;12.70;;
77026;SDS011;65956;52.986;17.490;2024-02-14T03:29:31;32.20;;;13.60;;
77026;SDS011;65956;52.986;17.490;2024-02-14T03:31:57;24.80;;;14.20;;
77026;SDS011;65956;52.986;17.490;2024-02-14T03:34:27;24.90;;;13.30;;
77026;SDS011;65956;52.986;17.490;2024-02-14T03:36:56;27.20;;;13.90;;
77026;SDS011;65956;52.986;17.490;2024-02-14T03:39:22;26.20;;;13.80;;
77026;SDS011;65956;52.986;17.490;2024-02-14T03:41:48;31.30;;;16.20;;
77026;SDS011;65956;52.986;17.490;2024-02-14T03:44:14;29.10;;;14.50;;
77026;SDS011;65956;52.986;17.490;2024-02-14T03:46:41;32.40;;;15.10;;
77026;SDS011;65956;52.986;17.490;2024-02-14T03:49:07;27.40;;;14.90;;
77026;SDS011;65956;52.986;17.490;2024-02-14T03:51:33;31.20;;;15.10;;
77026;SDS011;65956;52.986;17.490;2024-02-14T03:53:59;33.20;;;17.10;;
77026;SDS011;65956;52.986;17.490;2024-02-14T03:56:25;29.70;;;16.10;;
77026;SDS011;65956;52.986;17.490;2024-02-14T03:58:52;31.20;;;15.70;;
77026;SDS011;65956;52.986;17.490;2024-02-14T04:01:18;33.90;;;16.30;;
77026;SDS011;65956;52.986;17.490;2024-02-14T04:03:45;33.20;;;16.50;;
77026;SDS011;65956;52.986;17.490;2024-02-14T04:06:14;29.00;;;15.20;;
77026;SDS011;65956;52.986;17.490;2024-02-14T04:08:40;30.00;;;15.70;;
77026;SDS011;65956;52.986;17.490;2024-02-14T04:11:06;34.30;;;18.90;;
77026;SDS011;65956;52.986;17.490;2024-02-14T04:13:32;35.30;;;16.80;;
77026;SDS011;65956;52.986;17.490;2024-02-14T04:15:58;32.20;;;18.10;;
77026;SDS011;65956;52.986;17.490;2024-02-14T04:18:25;34.40;;;16.70;;
77026;SDS011;65956;52.986;17.490;2024-02-14T04:20:51;31.30;;;16.50;;
77026;SDS011;65956;52.986;17.490;2024-02-14T04:23:17;33.80;;;16.00;;
77026;SDS011;65956;52.986;17.490;2024-02-14T04:25:43;31.10;;;16.60;;
77026;SDS011;65956;52.986;17.490;2024-02-14T04:28:09;31.90;;;17.10;;
77026;SDS011;65956;52.986;17.490;2024-02-14T04:30:37;31.70;;;16.10;;
77026;SDS011;65956;52.986;17.490;2024-02-14T04:33:04;32.40;;;17.00;;
77026;SDS011;65956;52.986;17.490;2024-02-14T04:35:31;32.10;;;16.00;;
77026;SDS011;65956;52.986;17.490;2024-02-14T04:37:57;31.90;;;16.80;;
77026;SDS011;65956;52.986;17.490;2024-02-14T04:40:23;27.40;;;13.60;;
77026;SDS011;65956;52.986;17.490;2024-02-14T04:42:49;33.00;;;18.60;;
77026;SDS011;65956;52.986;17.490;2024-02-14T04:45:15;35.90;;;20.30;;
77026;SDS011;65956;52.986;17.490;2024-02-14T04:47:42;37.70;;;20.40;;
77026;SDS011;65956;52.986;17.490;2024-02-14T04:50:09;34.50;;;18.20;;
77026;SDS011;65956;52.986;17.490;2024-02-14T04:52:35;38.10;;;18.10;;
77026;SDS011;65956;52.986;17.490;2024-02-14T04:55:13;34.50;;;18.20;;
77026;SDS011;65956;52.986;17.490;2024-02-14T04:57:40;34.90;;;19.10;;
77026;SDS011;65956;52.986;17.490;2024-02-14T05:00:06;33.20;;;16.60;;
77026;SDS011;65956;52.986;17.490;2024-02-14T05:02:34;28.10;;;13.80;;
77026;SDS011;65956;52.986;17.490;2024-02-14T05:05:02;32.60;;;15.70;;
77026;SDS011;65956;52.986;17.490;2024-02-14T10:21:32;19.00;;;9.80;;
77026;SDS011;65956;52.986;17.490;2024-02-14T10:23:59;11.10;;;6.70;;
77026;SDS011;65956;52.986;17.490;2024-02-14T10:26:26;15.10;;;7.40;;
77026;SDS011;65956;52.986;17.490;2024-02-14T10:28:53;11.90;;;6.80;;
77026;SDS011;65956;52.986;17.490;2024-02-14T10:31:23;11.70;;;7.20;;
77026;SDS011;65956;52.986;17.490;2024-02-14T10:33:52;11.20;;;6.00;;
77026;SDS011;65956;52.986;17.490;2024-02-14T10:36:21;10.60;;;6.90;;
77026;SDS011;65956;52.986;17.490;2024-02-14T10:38:49;11.20;;;6.80;;
77026;SDS011;65956;52.986;17.490;2024-02-14T10:41:16;13.10;;;7.30;;
77026;SDS011;65956;52.986;17.490;2024-02-14T10:43:43;14.00;;;7.40;;
77026;SDS011;65956;52.986;17.490;2024-02-14T10:46:12;10.10;;;6.60;;
77026;SDS011;65956;52.986;17.490;2024-02-14T10:48:45;12.20;;;6.50;;
77026;SDS011;65956;52.986;17.490;2024-02-14T10:51:12;11.20;;;6.30;;
77026;SDS011;65956;52.986;17.490;2024-02-14T10:53:41;13.20;;;6.80;;
77026;SDS011;65956;52.986;17.490;2024-02-14T10:56:17;11.30;;;6.50;;
77026;SDS011;65956;52.986;17.490;2024-02-14T10:58:47;10.30;;;5.30;;
77026;SDS011;65956;52.986;17.490;2024-02-14T11:01:15;11.90;;;6.50;;
77026;SDS011;65956;52.986;17.490;2024-02-14T11:03:42;10.90;;;6.10;;
77026;SDS011;65956;52.986;17.490;2024-02-14T11:06:15;9.20;;;5.10;;
77026;SDS011;65956;52.986;17.490;2024-02-14T11:08:53;11.40;;;6.00;;
77026;SDS011;65956;52.986;17.490;2024-02-14T11:11:21;10.10;;;6.00;;
77026;SDS011;65956;52.986;17.490;2024-02-14T11:13:52;11.20;;;5.40;;
77026;SDS011;65956;52.986;17.490;2024-02-14T11:16:26;9.30;;;4.90;;
77026;SDS011;65956;52.986;17.490;2024-02-14T11:19:12;10.00;;;5.00;;
77026;SDS011;65956;52.986;17.490;2024-02-14T11:21:40;12.00;;;7.70;;
77026;SDS011;65956;52.986;17.490;2024-02-14T11:24:11;10.60;;;5.50;;
77026;SDS011;65956;52.986;17.490;2024-02-14T11:26:50;10.60;;;5.10;;
77026;SDS011;65956;52.986;17.490;2024-02-14T11:31:44;10.50;;;5.40;;
77026;SDS011;65956;52.986;17.490;2024-02-14T11:34:12;12.00;;;6.00;;
77026;SDS011;65956;52.986;17.490;2024-02-14T11:36:39;10.50;;;6.00;;
77026;SDS011;65956;52.986;17.490;2024-02-14T11:39:08;18.10;;;6.80;;
77026;SDS011;65956;52.986;17.490;2024-02-14T11:41:34;13.00;;;6.30;;
77026;SDS011;65956;52.986;17.490;2024-02-14T11:44:01;16.40;;;7.10;;
77026;SDS011;65956;52.986;17.490;2024-02-14T11:46:37;16.40;;;7.60;;
77026;SDS011;65956;52.986;17.490;2024-02-14T11:49:05;9.30;;;5.70;;
77026;SDS011;65956;52.986;17.490;2024-02-14T11:51:33;9.60;;;5.40;;
77026;SDS011;65956;52.986;17.490;2024-02-14T11:56:31;12.50;;;6.20;;
77026;SDS011;65956;52.986;17.490;2024-02-14T11:59:04;24.90;;;10.30;;
77026;SDS011;65956;52.986;17.490;2024-02-14T12:01:33;12.10;;;6.90;;
77026;SDS011;65956;52.986;17.490;2024-02-14T12:04:00;10.20;;;6.10;;
77026;SDS011;65956;52.986;17.490;2024-02-14T12:06:28;13.50;;;6.20;;
77026;SDS011;65956;52.986;17.490;2024-02-14T12:08:57;12.80;;;5.90;;
77026;SDS011;65956;52.986;17.490;2024-02-14T12:11:35;10.10;;;6.00;;
77026;SDS011;65956;52.986;17.490;2024-02-14T12:14:05;15.30;;;7.30;;
77026;SDS011;65956;52.986;17.490;2024-02-14T12:16:33;11.00;;;6.90;;
77026;SDS011;65956;52.986;17.490;2024-02-14T12:19:05;11.80;;;6.70;;
77026;SDS011;65956;52.986;17.490;2024-02-14T12:21:36;11.90;;;5.90;;
77026;SDS011;65956;52.986;17.490;2024-02-14T12:26:34;12.70;;;7.30;;
77026;SDS011;65956;52.986;17.490;2024-02-14T12:29:02;18.70;;;9.40;;
77026;SDS011;65956;52.986;17.490;2024-02-14T12:31:29;31.40;;;13.60;;
77026;SDS011;65956;52.986;17.490;2024-02-14T12:33:59;30.80;;;12.70;;
77026;SDS011;65956;52.986;17.490;2024-02-14T12:36:33;35.70;;;18.50;;
77026;SDS011;65956;52.986;17.490;2024-02-14T12:39:00;16.70;;;9.70;;
77026;SDS011;65956;52.986;17.490;2024-02-14T12:41:30;35.80;;;14.50;;
77026;SDS011;65956;52.986;17.490;2024-02-14T12:44:00;20.20;;;9.90;;
77026;SDS011;65956;52.986;17.490;2024-02-14T12:46:26;14.20;;;8.00;;
77026;SDS011;65956;52.986;17.490;2024-02-14T12:48:53;18.20;;;9.60;;
77026;SDS011;65956;52.986;17.490;2024-02-14T12:51:20;14.60;;;7.60;;
77026;SDS011;65956;52.986;17.490;2024-02-14T12:53:46;16.00;;;8.50;;
77026;SDS011;65956;52.986;17.490;2024-02-14T12:56:12;17.30;;;9.40;;
77026;SDS011;65956;52.986;17.490;2024-02-14T12:58:39;23.40;;;12.10;;
77026;SDS011;65956;52.986;17.490;2024-02-14T13:01:05;18.60;;;10.10;;
77026;SDS011;65956;52.986;17.490;2024-02-14T13:03:32;20.60;;;10.80;;
77026;SDS011;65956;52.986;17.490;2024-02-14T13:05:59;21.30;;;10.00;;
77026;SDS011;65956;52.986;17.490;2024-02-14T13:08:26;25.40;;;11.80;;
77026;SDS011;65956;52.986;17.490;2024-02-14T13:10:52;92.70;;;45.30;;
77026;SDS011;65956;52.986;17.490;2024-02-14T13:13:18;33.10;;;16.00;;
77026;SDS011;65956;52.986;17.490;2024-02-14T13:15:44;39.10;;;18.70;;
77026;SDS011;65956;52.986;17.490;2024-02-14T13:18:11;65.50;;;24.50;;
77026;SDS011;65956;52.986;17.490;2024-02-14T13:20:37;54.60;;;28.90;;
77026;SDS011;65956;52.986;17.490;2024-02-14T13:23:04;27.10;;;14.70;;
77026;SDS011;65956;52.986;17.490;2024-02-14T13:25:31;42.40;;;21.60;;
77026;SDS011;65956;52.986;17.490;2024-02-14T13:27:57;215.10;;;130.80;;
77026;SDS011;65956;52.986;17.490;2024-02-14T13:30:24;136.90;;;93.80;;
77026;SDS011;65956;52.986;17.490;2024-02-14T13:32:50;66.00;;;49.70;;
77026;SDS011;65956;52.986;17.490;2024-02-14T13:35:17;32.70;;;24.30;;
77026;SDS011;65956;52.986;17.490;2024-02-14T13:37:43;26.30;;;19.00;;
77026;SDS011;65956;52.986;17.490;2024-02-14T13:40:11;23.10;;;16.50;;
77026;SDS011;65956;52.986;17.490;2024-02-14T13:42:37;28.00;;;17.10;;
77026;SDS011;65956;52.986;17.490;2024-02-14T13:45:06;42.00;;;25.40;;
77026;SDS011;65956;52.986;17.490;2024-02-14T13:47:37;48.10;;;23.50;;
77026;SDS011;65956;52.986;17.490;2024-02-14T13:50:09;52.50;;;24.10;;
77026;SDS011;65956;52.986;17.490;2024-02-14T13:52:35;35.10;;;19.80;;
77026;SDS011;65956;52.986;17.490;2024-02-14T13:55:02;29.30;;;16.00;;
77026;SDS011;65956;52.986;17.490;2024-02-14T13:57:31;31.70;;;20.70;;
77026;SDS011;65956;52.986;17.490;2024-02-14T13:59:59;33.10;;;23.30;;
77026;SDS011;65956;52.986;17.490;2024-02-14T14:02:25;44.10;;;26.90;;
77026;SDS011;65956;52.986;17.490;2024-02-14T14:04:51;36.10;;;20.20;;
77026;SDS011;65956;52.986;17.490;2024-02-14T14:07:19;37.40;;;25.80;;
77026;SDS011;65956;52.986;17.490;2024-02-14T14:09:45;41.10;;;21.20;;
77026;SDS011;65956;52.986;17.490;2024-02-14T14:12:12;38.80;;;20.40;;
77026;SDS011;65956;52.986;17.490;2024-02-14T14:14:39;34.80;;;17.80;;
77026;SDS011;65956;52.986;17.490;2024-02-14T14:17:05;38.20;;;17.50;;
77026;SDS011;65956;52.986;17.490;2024-02-14T14:19:31;41.60;;;17.30;;
77026;SDS011;65956;52.986;17.490;2024-02-14T14:21:57;52.10;;;22.00;;
77026;SDS011;65956;52.986;17.490;2024-02-14T14:24:23;55.90;;;20.50;;
77026;SDS011;65956;52.986;17.490;2024-02-14T14:26:49;42.00;;;19.20;;
77026;SDS011;65956;52.986;17.490;2024-02-14T14:29:18;48.20;;;19.80;;
77026;SDS011;65956;52.986;17.490;2024-02-14T14:31:44;40.30;;;19.00;;
77026;SDS011;65956;52.986;17.490;2024-02-14T14:34:10;37.20;;;16.80;;
77026;SDS011;65956;52.986;17.490;2024-02-14T14:36:42;31.10;;;16.40;;
77026;SDS011;65956;52.986;17.490;2024-02-14T14:39:20;73.00;;;26.60;;
77026;SDS011;65956;52.986;17.490;2024-02-14T14:41:46;65.50;;;25.60;;
77026;SDS011;65956;52.986;17.490;2024-02-14T14:44:12;44.00;;;17.30;;
77026;SDS011;65956;52.986;17.490;2024-02-14T14:46:38;34.20;;;15.50;;
77026;SDS011;65956;52.986;17.490;2024-02-14T14:49:08;37.10;;;17.70;;
77026;SDS011;65956;52.986;17.490;2024-02-14T14:51:35;35.30;;;15.00;;
77026;SDS011;65956;52.986;17.490;2024-02-14T14:54:11;31.70;;;14.90;;
77026;SDS011;65956;52.986;17.490;2024-02-14T14:57:12;28.40;;;12.70;;
77026;SDS011;65956;52.986;17.490;2024-02-14T14:59:41;22.90;;;10.60;;
77026;SDS011;65956;52.986;17.490;2024-02-14T15:02:09;26.20;;;12.40;;
77026;SDS011;65956;52.986;17.490;2024-02-14T15:04:35;25.00;;;12.40;;
77026;SDS011;65956;52.986;17.490;2024-02-14T15:07:03;21.70;;;11.60;;
77026;SDS011;65956;52.986;17.490;2024-02-14T15:09:29;22.40;;;12.40;;
77026;SDS011;65956;52.986;17.490;2024-02-14T15:15:01;23.90;;;11.00;;
77026;SDS011;65956;52.986;17.490;2024-02-14T15:17:28;21.10;;;10.30;;
77026;SDS011;65956;52.986;17.490;2024-02-14T15:19:56;19.00;;;9.80;;
77026;SDS011;65956;52.986;17.490;2024-02-14T15:22:23;25.20;;;10.90;;
77026;SDS011;65956;52.986;17.490;2024-02-14T15:24:51;25.40;;;12.40;;
77026;SDS011;65956;52.986;17.490;2024-02-14T15:27:17;24.90;;;11.80;;
77026;SDS011;65956;52.986;17.490;2024-02-14T15:29:49;48.40;;;19.30;;
77026;SDS011;65956;52.986;17.490;2024-02-14T15:32:39;80.60;;;32.20;;
77026;SDS011;65956;52.986;17.490;2024-02-14T15:35:23;67.70;;;24.00;;
77026;SDS011;65956;52.986;17.490;2024-02-14T15:37:50;46.50;;;16.50;;
77026;SDS011;65956;52.986;17.490;2024-02-14T15:40:18;38.80;;;16.30;;
77026;SDS011;65956;52.986;17.490;2024-02-14T15:42:44;31.90;;;14.30;;
77026;SDS011;65956;52.986;17.490;2024-02-14T15:45:11;26.40;;;12.80;;
77026;SDS011;65956;52.986;17.490;2024-02-14T15:47:43;31.80;;;14.60;;
77026;SDS011;65956;52.986;17.490;2024-02-14T15:50:11;35.60;;;15.70;;
77026;SDS011;65956;52.986;17.490;2024-02-14T15:52:38;29.90;;;13.70;;
77026;SDS011;65956;52.986;17.490;2024-02-14T15:55:05;25.50;;;11.80;;
77026;SDS011;65956;52.986;17.490;2024-02-14T15:57:34;23.60;;;12.90;;
77026;SDS011;65956;52.986;17.490;2024-02-14T16:00:04;22.70;;;12.50;;
77026;SDS011;65956;52.986;17.490;2024-02-14T16:02:34;20.50;;;11.10;;
77026;SDS011;65956;52.986;17.490;2024-02-14T16:05:01;21.40;;;11.80;;
77026;SDS011;65956;52.986;17.490;2024-02-14T16:07:28;19.20;;;9.90;;
77026;SDS011;65956;52.986;17.490;2024-02-14T16:09:55;21.30;;;11.70;;
77026;SDS011;65956;52.986;17.490;2024-02-14T16:12:21;25.40;;;14.50;;
77026;SDS011;65956;52.986;17.490;2024-02-14T16:14:47;24.10;;;14.10;;
77026;SDS011;65956;52.986;17.490;2024-02-14T16:17:13;21.90;;;11.50;;
77026;SDS011;65956;52.986;17.490;2024-02-14T16:19:40;22.70;;;12.80;;
77026;SDS011;65956;52.986;17.490;2024-02-14T16:22:06;72.80;;;36.60;;
77026;SDS011;65956;52.986;17.490;2024-02-14T16:24:33;55.70;;;25.40;;
77026;SDS011;65956;52.986;17.490;2024-02-14T16:27:00;38.00;;;16.80;;
77026;SDS011;65956;52.986;17.490;2024-02-14T16:29:29;27.80;;;13.60;;
77026;SDS011;65956;52.986;17.490;2024-02-14T16:31:58;27.80;;;13.80;;
77026;SDS011;65956;52.986;17.490;2024-02-14T16:34:24;30.70;;;14.30;;
77026;SDS011;65956;52.986;17.490;2024-02-14T16:36:50;21.80;;;11.30;;
77026;SDS011;65956;52.986;17.490;2024-02-14T16:39:17;20.60;;;10.70;;
77026;SDS011;65956;52.986;17.490;2024-02-14T16:41:43;20.60;;;9.90;;
77026;SDS011;65956;52.986;17.490;2024-02-14T16:44:09;19.00;;;9.90;;
77026;SDS011;65956;52.986;17.490;2024-02-14T16:46:35;17.90;;;9.60;;
77026;SDS011;65956;52.986;17.490;2024-02-14T16:49:01;17.30;;;8.60;;
77026;SDS011;65956;52.986;17.490;2024-02-14T16:51:29;20.90;;;10.60;;
77026;SDS011;65956;52.986;17.490;2024-02-14T16:53:55;21.10;;;10.60;;
77026;SDS011;65956;52.986;17.490;2024-02-14T16:56:21;21.70;;;10.40;;
77026;SDS011;65956;52.986;17.490;2024-02-14T16:58:47;19.80;;;10.20;;
77026;SDS011;65956;52.986;17.490;2024-02-14T17:01:13;20.20;;;10.70;;
77026;SDS011;65956;52.986;17.490;2024-02-14T17:03:39;20.60;;;10.70;;
77026;SDS011;65956;52.986;17.490;2024-02-14T17:06:05;21.10;;;11.10;;
77026;SDS011;65956;52.986;17.490;2024-02-14T17:08:32;20.40;;;10.80;;
77026;SDS011;65956;52.986;17.490;2024-02-14T17:11:02;24.00;;;12.40;;
77026;SDS011;65956;52.986;17.490;2024-02-14T17:13:29;39.00;;;21.30;;
77026;SDS011;65956;52.986;17.490;2024-02-14T17:15:55;29.80;;;15.70;;
77026;SDS011;65956;52.986;17.490;2024-02-14T17:18:23;27.80;;;15.00;;
77026;SDS011;65956;52.986;17.490;2024-02-14T17:20:50;23.40;;;12.00;;
77026;SDS011;65956;52.986;17.490;2024-02-14T17:23:16;29.60;;;14.50;;
77026;SDS011;65956;52.986;17.490;2024-02-14T17:25:42;24.00;;;12.60;;
77026;SDS011;65956;52.986;17.490;2024-02-14T17:28:09;21.60;;;11.10;;
77026;SDS011;65956;52.986;17.490;2024-02-14T17:30:35;19.40;;;10.80;;
77026;SDS011;65956;52.986;17.490;2024-02-14T17:33:01;24.20;;;13.50;;
77026;SDS011;65956;52.986;17.490;2024-02-14T17:35:30;27.00;;;14.20;;
77026;SDS011;65956;52.986;17.490;2024-02-14T17:37:57;23.00;;;12.00;;
77026;SDS011;65956;52.986;17.490;2024-02-14T17:40:23;21.20;;;10.90;;
77026;SDS011;65956;52.986;17.490;2024-02-14T17:42:50;22.50;;;11.70;;
77026;SDS011;65956;52.986;17.490;2024-02-14T17:45:16;23.30;;;12.80;;
77026;SDS011;65956;52.986;17.490;2024-02-14T17:47:44;25.00;;;13.20;;
77026;SDS011;65956;52.986;17.490;2024-02-14T17:50:11;21.60;;;11.90;;
77026;SDS011;65956;52.986;17.490;2024-02-14T17:52:37;22.60;;;12.40;;
77026;SDS011;65956;52.986;17.490;2024-02-14T17:55:04;24.20;;;12.20;;
77026;SDS011;65956;52.986;17.490;2024-02-14T17:57:31;24.40;;;14.30;;
77026;SDS011;65956;52.986;17.490;2024-02-14T17:59:58;20.80;;;11.30;;
77026;SDS011;65956;52.986;17.490;2024-02-14T18:02:24;23.70;;;13.60;;
77026;SDS011;65956;52.986;17.490;2024-02-14T18:04:50;31.30;;;18.60;;
77026;SDS011;65956;52.986;17.490;2024-02-14T18:07:18;29.20;;;16.50;;
77026;SDS011;65956;52.986;17.490;2024-02-14T18:09:45;28.20;;;13.40;;
77026;SDS011;65956;52.986;17.490;2024-02-14T18:12:11;35.10;;;17.80;;
77026;SDS011;65956;52.986;17.490;2024-02-14T18:14:37;27.60;;;14.20;;
77026;SDS011;65956;52.986;17.490;2024-02-14T18:17:03;32.90;;;16.10;;
77026;SDS011;65956;52.986;17.490;2024-02-14T18:19:29;37.10;;;20.40;;
77026;SDS011;65956;52.986;17.490;2024-02-14T18:21:55;31.80;;;17.40;;
77026;SDS011;65956;52.986;17.490;2024-02-14T18:24:22;38.80;;;17.90;;
77026;SDS011;65956;52.986;17.490;2024-02-14T18:26:48;65.40;;;23.90;;
77026;SDS011;65956;52.986;17.490;2024-02-14T18:29:14;79.10;;;28.10;;
77026;SDS011;65956;52.986;17.490;2024-02-14T18:31:41;118.20;;;39.20;;
77026;SDS011;65956;52.986;17.490;2024-02-14T18:34:08;115.00;;;36.60;;
77026;SDS011;65956;52.986;17.490;2024-02-14T18:36:34;94.60;;;33.50;;
77026;SDS011;65956;52.986;17.490;2024-02-14T18:39:00;65.20;;;29.10;;
77026;SDS011;65956;52.986;17.490;2024-02-14T18:41:27;74.40;;;29.60;;
77026;SDS011;65956;52.986;17.490;2024-02-14T18:43:53;50.50;;;23.90;;
77026;SDS011;65956;52.986;17.490;2024-02-14T18:46:20;69.80;;;28.60;;
77026;SDS011;65956;52.986;17.490;2024-02-14T18:48:49;113.70;;;42.50;;
77026;SDS011;65956;52.986;17.490;2024-02-14T18:51:15;64.30;;;26.10;;
77026;SDS011;65956;52.986;17.490;2024-02-14T18:53:41;50.50;;;22.60;;
77026;SDS011;65956;52.986;17.490;2024-02-14T18:56:13;54.20;;;25.20;;
77026;SDS011;65956;52.986;17.490;2024-02-14T18:58:39;65.40;;;28.00;;
77026;SDS011;65956;52.986;17.490;2024-02-14T19:01:06;59.30;;;23.10;;
77026;SDS011;65956;52.986;17.490;2024-02-14T19:03:32;46.30;;;19.10;;
77026;SDS011;65956;52.986;17.490;2024-02-14T19:05:59;55.40;;;24.00;;
77026;SDS011;65956;52.986;17.490;2024-02-14T19:08:25;50.60;;;23.40;;
77026;SDS011;65956;52.986;17.490;2024-02-14T19:10:51;50.70;;;24.20;;
77026;SDS011;65956;52.986;17.490;2024-02-14T19:13:20;45.80;;;21.00;;
77026;SDS011;65956;52.986;17.490;2024-02-14T19:15:48;60.80;;;27.30;;
77026;SDS011;65956;52.986;17.490;2024-02-14T19:18:15;49.70;;;21.80;;
77026;SDS011;65956;52.986;17.490;2024-02-14T19:20:41;46.20;;;21.90;;
77026;SDS011;65956;52.986;17.490;2024-02-14T19:23:11;44.30;;;21.00;;
77026;SDS011;65956;52.986;17.490;2024-02-14T19:25:37;42.90;;;20.30;;
77026;SDS011;65956;52.986;17.490;2024-02-14T19:28:03;48.40;;;26.30;;
77026;SDS011;65956;52.986;17.490;2024-02-14T19:30:29;47.00;;;22.40;;
77026;SDS011;65956;52.986;17.490;2024-02-14T19:32:55;33.10;;;17.90;;
77026;SDS011;65956;52.986;17.490;2024-02-14T19:35:21;47.40;;;23.90;;
77026;SDS011;65956;52.986;17.490;2024-02-14T19:37:47;40.70;;;20.20;;
77026;SDS011;65956;52.986;17.490;2024-02-14T19:40:14;37.70;;;18.50;;